createdAt,value
2023-03-26T00:00:12.836Z,99561.75
2023-03-26T00:03:17.345Z,99564.59
2023-03-26T00:06:23.122Z,99562.47
2023-03-26T00:09:25.948Z,99560.44
2023-03-26T00:12:29.099Z,99561.16
2023-03-26T00:15:33.265Z,99552.06
2023-03-26T00:18:37.854Z,99548.72
2023-03-26T00:21:41.486Z,99545.50
2023-03-26T00:24:46.031Z,99545.72
2023-03-26T00:27:49.649Z,99543.44
2023-03-26T00:31:04.816Z,99537.09
2023-03-26T00:34:07.415Z,99537.94
2023-03-26T00:37:12.550Z,99542.09
2023-03-26T00:40:15.458Z,99541.69
2023-03-26T00:43:20.307Z,99545.78
2023-03-26T00:46:26.937Z,99543.41
2023-03-26T00:49:30.744Z,99547.81
2023-03-26T00:52:36.156Z,99536.00
2023-03-26T00:55:40.563Z,99535.31
2023-03-26T00:58:43.478Z,99530.53
2023-03-26T01:01:47.154Z,99529.47
2023-03-26T01:04:57.560Z,99527.81
2023-03-26T01:08:15.156Z,99526.13
2023-03-26T01:11:27.774Z,99526.13
2023-03-26T01:14:30.905Z,99523.38
2023-03-26T01:17:37.879Z,99530.13
2023-03-26T01:20:46.825Z,99527.38
2023-03-26T01:24:10.133Z,99524.22
2023-03-26T01:27:34.773Z,99533.50
2023-03-26T01:30:49.646Z,99533.50
2023-03-26T01:34:02.776Z,99528.41
2023-03-26T01:37:18.444Z,99524.09
2023-03-26T01:40:38.723Z,99520.34
2023-03-26T01:43:47.690Z,99524.50
2023-03-26T01:46:51.475Z,99525.78
2023-03-26T01:49:54.191Z,99526.41
2023-03-26T01:52:57.483Z,99535.16
2023-03-26T01:56:12.797Z,99521.87
2023-03-26T01:59:49.043Z,99528.09
2023-03-26T02:03:22.611Z,99522.97
2023-03-26T02:06:51.534Z,99527.97
2023-03-26T02:10:00.668Z,99533.75
2023-03-26T02:13:06.132Z,99534.94
2023-03-26T02:16:14.334Z,99535.28
2023-03-26T02:19:21.625Z,99545.59
2023-03-26T02:22:30.111Z,99546.22
2023-03-26T02:25:35.282Z,99544.78
2023-03-26T02:28:38.793Z,99543.16
2023-03-26T02:31:43.484Z,99544.78
2023-03-26T02:34:47.388Z,99547.16
2023-03-26T02:37:51.021Z,99550.50
2023-03-26T02:40:55.289Z,99549.13
2023-03-26T02:43:59.490Z,99546.63
2023-03-26T02:47:03.582Z,99542.63
2023-03-26T02:50:09.677Z,99549.59
2023-03-26T02:53:14.356Z,99542.91
2023-03-26T02:56:18.559Z,99536.81
2023-03-26T02:59:23.079Z,99534.59
2023-03-26T03:02:29.422Z,99529.34
2023-03-26T03:05:33.161Z,99533.63
2023-03-26T03:08:37.053Z,99528.50
2023-03-26T03:11:44.759Z,99532.69
2023-03-26T03:14:47.482Z,99533.41
2023-03-26T03:17:50.573Z,99545.53
2023-03-26T03:20:56.797Z,99535.75
2023-03-26T03:24:00.529Z,99530.13
2023-03-26T03:27:04.181Z,99526.38
2023-03-26T03:30:08.051Z,99533.94
2023-03-26T03:33:13.189Z,99536.16
2023-03-26T03:36:20.573Z,99547.47
2023-03-26T03:39:24.020Z,99536.94
2023-03-26T03:42:30.203Z,99530.69
2023-03-26T03:45:32.971Z,99528.50
2023-03-26T03:48:41.074Z,99536.06
2023-03-26T03:51:44.896Z,99537.69
2023-03-26T03:54:48.379Z,99547.84
2023-03-26T03:57:52.596Z,99555.72
2023-03-26T04:01:04.436Z,99568.19
2023-03-26T04:04:10.423Z,99554.13
2023-03-26T04:07:13.662Z,99559.37
2023-03-26T04:10:17.643Z,99566.72
2023-03-26T04:13:22.254Z,99561.03
2023-03-26T04:16:25.970Z,99562.94
2023-03-26T04:19:28.683Z,99562.75
2023-03-26T04:22:35.118Z,99564.09
2023-03-26T04:25:39.455Z,99560.31
2023-03-26T04:28:50.895Z,99566.22
2023-03-26T04:32:07.020Z,99554.59
2023-03-26T04:35:14.908Z,99557.53
2023-03-26T04:38:18.616Z,99556.78
2023-03-26T04:41:27.845Z,99562.66
2023-03-26T04:44:31.876Z,99553.00
2023-03-26T04:47:37.159Z,99553.22
2023-03-26T04:50:45.421Z,99554.09
2023-03-26T04:53:52.604Z,99561.59
2023-03-26T04:57:04.274Z,99560.03
2023-03-26T05:00:19.650Z,99562.66
2023-03-26T05:03:22.803Z,99569.28
2023-03-26T05:06:28.799Z,99567.03
2023-03-26T05:09:32.048Z,99564.13
2023-03-26T05:12:36.767Z,99551.53
2023-03-26T05:15:39.540Z,99547.88
2023-03-26T05:18:42.597Z,99552.16
2023-03-26T05:21:46.068Z,99544.31
2023-03-26T05:24:49.116Z,99552.25
2023-03-26T05:27:51.724Z,99552.37
2023-03-26T05:30:57.639Z,99557.38
2023-03-26T05:34:01.050Z,99552.25
2023-03-26T05:37:04.581Z,99552.41
2023-03-26T05:40:12.328Z,99552.88
2023-03-26T05:43:16.656Z,99559.28
2023-03-26T05:46:21.959Z,99561.91
2023-03-26T05:49:26.304Z,99559.50
2023-03-26T05:52:29.894Z,99552.88
2023-03-26T05:55:34.904Z,99551.53
2023-03-26T05:58:42.115Z,99555.06
2023-03-26T06:01:56.118Z,99550.13
2023-03-26T06:05:01.283Z,99548.03
2023-03-26T06:08:07.849Z,99547.62
2023-03-26T06:11:13.041Z,99544.53
2023-03-26T06:14:16.026Z,99552.09
2023-03-26T06:17:20.211Z,99545.56
2023-03-26T06:20:24.313Z,99546.00
2023-03-26T06:23:28.174Z,99538.28
2023-03-26T06:26:31.368Z,99535.19
2023-03-26T06:29:34.444Z,99531.34
2023-03-26T06:32:38.006Z,99532.34
2023-03-26T06:35:42.873Z,99532.38
2023-03-26T06:38:46.196Z,99537.38
2023-03-26T06:41:49.384Z,99541.72
2023-03-26T06:44:55.338Z,99543.69
2023-03-26T06:48:00.362Z,99542.41
2023-03-26T06:51:04.072Z,99544.56
2023-03-26T06:54:07.057Z,99547.03
2023-03-26T06:57:10.999Z,99546.91
2023-03-26T07:00:15.782Z,99548.19
2023-03-26T07:03:22.020Z,99554.38
2023-03-26T07:06:39.372Z,99554.81
2023-03-26T07:10:05.343Z,99555.62
2023-03-26T07:13:10.993Z,99557.59
2023-03-26T07:16:15.295Z,99546.41
2023-03-26T07:19:18.576Z,99548.94
2023-03-26T07:22:23.900Z,99554.72
2023-03-26T07:25:29.170Z,99551.22
2023-03-26T07:28:41.973Z,99555.78
2023-03-26T07:32:09.652Z,99565.59
2023-03-26T07:35:35.420Z,99565.87
2023-03-26T07:38:49.109Z,99563.38
2023-03-26T07:42:22.336Z,99561.56
2023-03-26T07:45:39.535Z,99562.66
2023-03-26T07:48:47.854Z,99563.59
2023-03-26T07:51:51.289Z,99564.84
2023-03-26T07:54:56.907Z,99566.63
2023-03-26T07:58:12.381Z,99568.69
2023-03-26T08:01:28.290Z,99553.59
2023-03-26T08:04:32.236Z,99558.56
2023-03-26T08:08:09.367Z,99558.31
2023-03-26T08:11:25.309Z,99554.03
2023-03-26T08:14:48.101Z,99556.12
2023-03-26T08:18:16.460Z,99541.44
2023-03-26T08:21:49.474Z,99547.09
2023-03-26T08:24:59.382Z,99538.97
2023-03-26T08:28:39.390Z,99533.16
2023-03-26T08:31:45.965Z,99544.09
2023-03-26T08:34:49.677Z,99539.38
2023-03-26T08:37:53.307Z,99539.88
2023-03-26T08:41:11.533Z,99540.81
2023-03-26T08:44:36.577Z,99532.72
2023-03-26T08:47:51.578Z,99537.28
2023-03-26T08:51:34.745Z,99543.84
2023-03-26T08:54:52.483Z,99533.59
2023-03-26T08:58:14.194Z,99530.78
2023-03-26T09:01:42.821Z,99536.09
2023-03-26T09:05:11.132Z,99527.03
2023-03-26T09:08:35.209Z,99535.00
2023-03-26T09:11:40.901Z,99526.66
2023-03-26T09:15:05.551Z,99527.59
2023-03-26T09:18:11.555Z,99525.25
2023-03-26T09:21:33.049Z,99525.53
2023-03-26T09:24:51.317Z,99515.47
2023-03-26T09:28:16.350Z,99524.09
2023-03-26T09:31:34.744Z,99514.81
2023-03-26T09:34:40.662Z,99512.87
2023-03-26T09:37:57.541Z,99501.44
2023-03-26T09:41:02.516Z,99504.28
2023-03-26T09:44:08.488Z,99506.63
2023-03-26T09:47:39.271Z,99503.22
2023-03-26T09:50:55.221Z,99498.66
2023-03-26T09:54:28.396Z,99485.03
2023-03-26T09:57:31.916Z,99482.47
2023-03-26T10:00:49.775Z,99469.66
2023-03-26T10:04:06.930Z,99469.13
2023-03-26T10:07:43.678Z,99470.94
2023-03-26T10:11:24.053Z,99457.81
2023-03-26T10:14:40.813Z,99442.75
2023-03-26T10:18:27.070Z,99434.38
2023-03-26T10:21:48.523Z,99434.34
2023-03-26T10:25:22.333Z,99441.34
2023-03-26T10:28:35.411Z,99438.63
2023-03-26T10:31:59.933Z,99443.06
2023-03-26T10:35:20.488Z,99459.41
2023-03-26T10:38:42.237Z,99470.91
2023-03-26T10:41:54.560Z,99470.66
2023-03-26T10:45:27.342Z,99455.44
2023-03-26T10:48:43.078Z,99455.47
2023-03-26T10:51:57.169Z,99438.03
2023-03-26T10:55:24.315Z,99427.63
2023-03-26T10:58:49.307Z,99415.53
2023-03-26T11:02:29.349Z,99405.44
2023-03-26T11:05:42.916Z,99398.09
2023-03-26T11:09:12.661Z,99383.63
2023-03-26T11:12:53.227Z,99380.53
2023-03-26T11:16:06.613Z,99383.69
2023-03-26T11:19:35.454Z,99372.38
2023-03-26T11:22:48.956Z,99361.84
2023-03-26T11:26:04.219Z,99363.13
2023-03-26T11:29:30.987Z,99366.16
2023-03-26T11:32:45.935Z,99359.31
2023-03-26T11:35:51.674Z,99345.81
2023-03-26T11:38:59.763Z,99331.63
2023-03-26T11:42:11.258Z,99327.75
2023-03-26T11:45:24.221Z,99325.69
2023-03-26T11:48:43.289Z,99315.81
2023-03-26T11:51:49.741Z,99308.56
2023-03-26T11:59:08.163Z,99301.25
2023-03-26T12:02:42.982Z,99288.53
2023-03-26T12:06:27.178Z,99282.34
2023-03-26T12:10:23.472Z,99267.34
2023-03-26T12:13:39.398Z,99265.31
2023-03-26T12:17:15.764Z,99254.28
2023-03-26T12:24:50.240Z,99245.13
2023-03-26T12:28:19.878Z,99229.97
2023-03-26T12:31:27.519Z,99218.94
2023-03-26T12:34:37.798Z,99216.87
2023-03-26T12:37:44.026Z,99211.25
2023-03-26T12:41:07.500Z,99202.66
2023-03-26T12:44:46.871Z,99203.97
2023-03-26T12:48:00.459Z,99196.16
2023-03-26T12:51:12.576Z,99179.56
2023-03-26T12:54:45.642Z,99174.53
2023-03-26T12:58:17.688Z,99176.81
2023-03-26T13:01:34.066Z,99170.06
2023-03-26T13:04:46.940Z,99150.56
2023-03-26T13:08:25.166Z,99168.72
2023-03-26T13:11:46.065Z,99159.84
2023-03-26T13:15:03.363Z,99156.72
2023-03-26T13:18:50.006Z,99156.03
2023-03-26T13:22:12.387Z,99141.06
2023-03-26T13:25:53.186Z,99131.34
2023-03-26T13:29:20.388Z,99113.44
2023-03-26T13:32:51.511Z,99102.13
2023-03-26T13:36:22.405Z,99103.41
2023-03-26T13:39:37.592Z,99089.78
2023-03-26T13:43:23.100Z,99103.22
2023-03-26T13:46:36.585Z,99090.34
2023-03-26T13:49:50.212Z,99093.13
2023-03-26T13:52:59.073Z,99077.53
2023-03-26T13:56:02.128Z,99085.28
2023-03-26T13:59:19.964Z,99084.31
2023-03-26T14:02:49.480Z,99081.72
2023-03-26T14:05:56.214Z,99063.94
2023-03-26T14:09:19.086Z,99062.75
2023-03-26T14:13:02.830Z,99058.28
2023-03-26T14:16:20.785Z,99047.75
2023-03-26T14:19:33.903Z,99045.47
2023-03-26T14:22:58.533Z,99038.84
2023-03-26T14:26:20.513Z,99046.47
2023-03-26T14:29:56.333Z,99038.47
2023-03-26T14:33:28.836Z,99026.34
2023-03-26T14:36:37.724Z,99029.25
2023-03-26T14:40:15.243Z,99029.88
2023-03-26T14:43:24.932Z,99018.87
2023-03-26T14:46:38.883Z,99009.41
2023-03-26T14:50:15.782Z,99004.00
2023-03-26T14:53:24.467Z,99004.94
2023-03-26T14:56:45.926Z,99011.66
2023-03-26T15:00:28.560Z,98995.56
2023-03-26T15:04:02.540Z,98993.53
2023-03-26T15:07:36.921Z,98990.50
2023-03-26T15:11:22.809Z,98975.53
2023-03-26T15:14:46.653Z,98980.13
2023-03-26T15:18:21.710Z,98972.59
2023-03-26T15:22:13.593Z,98961.84
2023-03-26T15:25:36.194Z,98958.09
2023-03-26T15:29:24.976Z,98961.72
2023-03-26T15:32:43.223Z,98959.50
2023-03-26T15:36:01.705Z,98956.44
2023-03-26T15:39:38.444Z,98947.16
2023-03-26T15:43:09.678Z,98943.31
2023-03-26T15:46:51.051Z,98935.06
2023-03-26T15:50:00.983Z,98940.47
2023-03-26T15:53:28.750Z,98925.41
2023-03-26T15:56:55.895Z,98940.16
2023-03-26T16:00:15.397Z,98931.59
2023-03-26T16:03:31.574Z,98927.88
2023-03-26T16:07:04.160Z,98924.41
2023-03-26T16:10:30.319Z,98914.13
2023-03-26T16:13:41.618Z,98913.59
2023-03-26T16:17:02.515Z,98907.78
2023-03-26T16:20:31.614Z,98907.38
2023-03-26T16:23:47.730Z,98901.94
2023-03-26T16:27:08.221Z,98885.69
2023-03-26T16:30:27.971Z,98873.09
2023-03-26T16:33:39.197Z,98868.16
2023-03-26T16:36:43.835Z,98866.16
2023-03-26T16:39:47.406Z,98871.25
2023-03-26T16:43:22.193Z,98868.62
2023-03-26T16:46:36.810Z,98863.53
2023-03-26T16:50:08.603Z,98853.81
2023-03-26T16:54:04.524Z,98857.31
2023-03-26T16:57:28.085Z,98865.81
2023-03-26T17:00:49.342Z,98861.03
2023-03-26T17:04:23.399Z,98865.53
2023-03-26T17:07:40.741Z,98865.75
2023-03-26T17:11:09.639Z,98863.31
2023-03-26T17:14:35.020Z,98861.69
2023-03-26T17:17:57.239Z,98869.00
2023-03-26T17:21:03.618Z,98858.69
2023-03-26T17:24:25.329Z,98863.03
2023-03-26T17:27:39.162Z,98860.03
2023-03-26T17:31:04.564Z,98857.56
2023-03-26T17:34:34.198Z,98856.09
2023-03-26T17:37:44.792Z,98864.06
2023-03-26T17:40:51.822Z,98862.72
2023-03-26T17:43:57.262Z,98857.75
2023-03-26T17:47:01.453Z,98863.75
2023-03-26T17:50:22.746Z,98858.09
2023-03-26T17:53:31.935Z,98856.97
2023-03-26T17:56:41.292Z,98855.81
2023-03-26T17:59:45.563Z,98856.31
2023-03-26T18:03:03.401Z,98857.44
2023-03-26T18:06:13.294Z,98849.50
2023-03-26T18:09:43.620Z,98849.66
2023-03-26T18:13:15.335Z,98852.16
2023-03-26T18:16:38.119Z,98854.12
2023-03-26T18:19:56.300Z,98847.50
2023-03-26T18:23:10.068Z,98845.69
2023-03-26T18:26:19.180Z,98851.00
2023-03-26T18:29:29.006Z,98842.56
2023-03-26T18:32:33.779Z,98833.59
2023-03-26T18:35:52.207Z,98833.13
2023-03-26T18:39:02.203Z,98836.06
2023-03-26T18:42:06.723Z,98832.59
2023-03-26T18:45:29.720Z,98835.75
2023-03-26T18:48:32.970Z,98823.66
2023-03-26T18:51:46.407Z,98817.69
2023-03-26T18:54:54.607Z,98817.22
2023-03-26T18:57:58.660Z,98807.94
2023-03-26T19:01:20.057Z,98816.53
2023-03-26T19:04:33.476Z,98809.56
2023-03-26T19:07:38.268Z,98795.38
2023-03-26T19:10:43.602Z,98785.75
2023-03-26T19:13:59.442Z,98781.63
2023-03-26T19:17:07.175Z,98776.16
2023-03-26T19:20:19.536Z,98764.72
2023-03-26T19:23:27.738Z,98765.53
2023-03-26T19:26:31.685Z,98767.34
2023-03-26T19:29:37.000Z,98754.44
2023-03-26T19:32:55.494Z,98753.81
2023-03-26T19:36:23.641Z,98756.13
2023-03-26T19:42:44.735Z,98744.22
2023-03-26T19:46:00.053Z,98744.53
2023-03-26T19:49:06.999Z,98728.31
2023-03-26T19:52:16.134Z,98732.12
2023-03-26T19:55:24.213Z,98720.19
2023-03-26T19:58:28.102Z,98711.13
2023-03-26T20:01:32.173Z,98695.72
2023-03-26T20:04:39.235Z,98700.19
2023-03-26T20:07:45.581Z,98692.88
2023-03-26T20:10:49.557Z,98686.28
2023-03-26T20:13:52.701Z,98676.34
2023-03-26T20:16:55.731Z,98668.06
2023-03-26T20:19:59.921Z,98665.13
2023-03-26T20:23:03.959Z,98661.63
2023-03-26T20:26:15.214Z,98650.06
2023-03-26T20:29:19.890Z,98636.00
2023-03-26T20:32:26.333Z,98622.91
2023-03-26T20:35:36.252Z,98619.63
2023-03-26T20:38:40.992Z,98616.00
2023-03-26T20:41:47.861Z,98610.53
2023-03-26T20:44:50.502Z,98596.97
2023-03-26T20:48:00.453Z,98591.19
2023-03-26T20:51:07.280Z,98598.81
2023-03-26T20:54:17.727Z,98601.28
2023-03-26T20:57:21.094Z,98599.97
2023-03-26T21:00:24.816Z,98597.31
2023-03-26T21:03:27.771Z,98591.00
2023-03-26T21:06:32.172Z,98590.34
2023-03-26T21:09:35.748Z,98596.16
2023-03-26T21:12:52.393Z,98594.66
2023-03-26T21:15:55.823Z,98596.81
2023-03-26T21:18:59.130Z,98600.28
2023-03-26T21:22:17.668Z,98598.63
2023-03-26T21:25:41.962Z,98602.28
2023-03-26T21:28:49.689Z,98598.28
2023-03-26T21:31:55.066Z,98594.50
2023-03-26T21:34:59.508Z,98595.97
2023-03-26T21:38:06.393Z,98596.63
2023-03-26T21:41:31.248Z,98602.56
2023-03-26T21:44:34.658Z,98597.91
2023-03-26T21:47:37.783Z,98619.66
2023-03-26T21:50:41.067Z,98623.88
2023-03-26T21:53:44.212Z,98625.84
2023-03-26T21:57:04.478Z,98617.72
2023-03-26T22:00:15.686Z,98619.50
2023-03-26T22:03:31.589Z,98616.19
2023-03-26T22:06:43.901Z,98621.09
2023-03-26T22:09:47.594Z,98616.63
2023-03-26T22:12:50.992Z,98618.25
2023-03-26T22:15:54.241Z,98613.16
2023-03-26T22:18:57.025Z,98615.16
2023-03-26T22:22:00.616Z,98606.63
2023-03-26T22:25:03.366Z,98605.03
2023-03-26T22:28:06.632Z,98601.88
2023-03-26T22:31:09.766Z,98594.56
2023-03-26T22:34:13.182Z,98586.91
2023-03-26T22:37:16.309Z,98582.03
2023-03-26T22:40:20.780Z,98586.56
2023-03-26T22:43:23.567Z,98586.97
2023-03-26T22:46:26.724Z,98584.81
2023-03-26T22:49:31.473Z,98583.84
2023-03-26T22:52:36.699Z,98574.44
2023-03-26T22:55:39.394Z,98577.00
2023-03-26T22:58:43.051Z,98573.81
2023-03-26T23:01:46.846Z,98559.50
2023-03-26T23:04:50.737Z,98570.72
2023-03-26T23:07:53.633Z,98565.28
2023-03-26T23:10:58.847Z,98557.41
2023-03-26T23:14:02.005Z,98555.25
2023-03-26T23:17:14.426Z,98556.81
2023-03-26T23:20:17.478Z,98562.34
2023-03-26T23:23:27.736Z,98554.00
2023-03-26T23:26:43.965Z,98546.91
2023-03-26T23:29:50.889Z,98549.91
2023-03-26T23:32:54.694Z,98546.53
2023-03-26T23:36:00.106Z,98540.97
2023-03-26T23:39:04.903Z,98537.94
2023-03-26T23:42:08.448Z,98525.53
2023-03-26T23:45:13.061Z,98525.03
2023-03-26T23:48:22.311Z,98512.56
2023-03-26T23:51:25.207Z,98501.78
2023-03-26T23:54:30.086Z,98493.13
2023-03-26T23:57:33.247Z,98484.03
